Time;durP1;ratioP1;P1;durP2;ratioP2;P2;SDS_P1;SDS_P2;PMS_P1;PMS_P2;Temp;Humidity;BMP_temperature;BMP_pressure;BME280_temperature;BME280_humidity;BME280_pressure;Samples;Min_cycle;Max_cycle;Signal;HPM_P1;HPM_P2
2022/01/31 00:01:04;;;;;;;11.97;3.00;;;4.80;99.90;;;;;;5100973;28;20468;-69
2022/01/31 00:03:33;;;;;;;11.17;3.87;;;4.80;99.90;;;;;;5100784;28;20488;-70
2022/01/31 00:06:01;;;;;;;11.27;2.63;;;4.80;99.90;;;;;;5101835;28;20493;-69
2022/01/31 00:08:28;;;;;;;13.77;2.90;;;4.80;99.90;;;;;;5100388;28;20473;-69
2022/01/31 00:10:55;;;;;;;17.60;4.40;;;4.80;99.90;;;;;;5101005;28;20465;-70
2022/01/31 00:13:32;;;;;;;10.10;3.73;;;4.80;99.90;;;;;;5101541;28;20476;-70
2022/01/31 00:15:58;;;;;;;20.83;3.57;;;4.80;99.90;;;;;;5101165;28;20433;-69
2022/01/31 00:18:28;;;;;;;10.73;2.93;;;4.80;99.90;;;;;;5100446;28;20457;-70
2022/01/31 00:20:55;;;;;;;9.83;2.57;;;4.80;99.90;;;;;;5100270;28;20464;-69
2022/01/31 00:23:23;;;;;;;15.23;3.07;;;4.80;99.90;;;;;;5101489;28;20483;-70
2022/01/31 00:25:50;;;;;;;13.57;3.63;;;4.70;99.90;;;;;;5099472;28;20801;-70
2022/01/31 00:28:17;;;;;;;11.37;2.93;;;4.70;1.00;;;;;;5099812;28;20457;-69
2022/01/31 00:30:44;;;;;;;20.80;3.37;;;4.70;1.00;;;;;;5098632;28;20468;-69
2022/01/31 00:33:10;;;;;;;13.90;4.10;;;4.70;1.00;;;;;;5100100;28;20483;-69
2022/01/31 00:35:37;;;;;;;16.80;3.87;;;4.70;1.00;;;;;;5100249;28;20457;-69
2022/01/31 00:38:07;;;;;;;20.50;3.43;;;4.60;1.00;;;;;;5100490;28;20464;-69
2022/01/31 00:40:38;;;;;;;18.30;3.83;;;4.60;99.90;;;;;;5099796;28;20454;-70
2022/01/31 00:43:11;;;;;;;14.13;3.80;;;4.60;1.00;;;;;;5098663;28;20526;-70
2022/01/31 00:45:45;;;;;;;15.90;3.73;;;4.60;1.00;;;;;;5098727;28;20481;-69
2022/01/31 00:48:17;;;;;;;15.87;3.13;;;4.60;24.40;;;;;;5097685;28;21015;-69
2022/01/31 00:50:47;;;;;;;19.50;3.83;;;4.60;1.00;;;;;;5098413;28;20445;-70
2022/01/31 00:53:14;;;;;;;13.20;3.83;;;4.60;1.00;;;;;;5097985;28;20449;-70
2022/01/31 00:55:42;;;;;;;17.67;3.67;;;4.50;99.90;;;;;;5098400;28;20453;-70
2022/01/31 00:58:09;;;;;;;24.63;4.57;;;4.60;1.00;;;;;;5097939;28;20458;-70
2022/01/31 01:00:35;;;;;;;15.33;4.47;;;4.50;99.90;;;;;;5098117;28;20454;-70
2022/01/31 01:03:03;;;;;;;20.47;5.17;;;4.50;1.00;;;;;;5098728;28;20457;-70
2022/01/31 01:05:30;;;;;;;16.33;3.37;;;4.50;99.90;;;;;;5098057;28;20484;-70
2022/01/31 01:07:56;;;;;;;17.23;4.30;;;4.50;1.00;;;;;;5098253;28;20902;-69
2022/01/31 01:10:23;;;;;;;18.10;4.00;;;4.40;99.90;;;;;;5098022;28;20494;-70
2022/01/31 01:12:51;;;;;;;20.33;5.23;;;4.40;1.00;;;;;;5097556;28;20557;-68
2022/01/31 01:15:18;;;;;;;19.37;4.10;;;4.30;99.90;;;;;;5097445;28;20897;-69
2022/01/31 01:17:45;;;;;;;8.70;3.40;;;4.20;1.00;;;;;;5096638;28;20453;-69
2022/01/31 01:20:15;;;;;;;24.53;4.27;;;3.90;1.00;;;;;;5097132;28;20449;-69
2022/01/31 01:22:41;;;;;;;22.37;3.40;;;3.80;1.00;;;;;;5096579;28;20928;-68
2022/01/31 01:25:09;;;;;;;23.50;4.43;;;3.70;5.80;;;;;;5096790;28;20489;-69
2022/01/31 01:27:36;;;;;;;26.10;5.60;;;3.60;38.70;;;;;;5097227;28;20898;-69
2022/01/31 01:30:06;;;;;;;17.53;3.20;;;3.60;78.80;;;;;;5097765;28;20461;-69
2022/01/31 01:32:43;;;;;;;23.73;4.13;;;3.60;99.90;;;;;;5098758;28;20453;-73
2022/01/31 01:35:10;;;;;;;22.50;5.03;;;3.60;99.90;;;;;;5097561;28;20429;-69
2022/01/31 01:37:37;;;;;;;25.43;5.17;;;3.70;94.40;;;;;;5097219;28;20461;-69
2022/01/31 01:40:05;;;;;;;17.00;4.10;;;3.70;47.10;;;;;;5097645;28;20526;-69
2022/01/31 01:42:33;;;;;;;17.47;3.90;;;3.70;40.00;;;;;;5097919;28;20469;-69
2022/01/31 01:45:00;;;;;;;20.47;4.47;;;3.70;28.60;;;;;;5098416;28;20477;-69
2022/01/31 01:47:28;;;;;;;15.17;3.40;;;3.70;23.40;;;;;;5098694;28;20485;-69
2022/01/31 01:49:57;;;;;;;11.87;3.33;;;3.80;19.00;;;;;;5099091;28;20453;-68
2022/01/31 01:52:24;;;;;;;17.60;3.90;;;3.80;1.00;;;;;;5098343;28;20468;-69
2022/01/31 01:54:51;;;;;;;16.17;3.43;;;3.90;1.00;;;;;;5098289;28;20464;-69
2022/01/31 01:57:20;;;;;;;21.70;4.13;;;3.90;1.00;;;;;;5098218;28;20449;-69
2022/01/31 01:59:47;;;;;;;24.00;4.40;;;3.90;1.00;;;;;;5098525;28;20449;-68
2022/01/31 02:02:13;;;;;;;24.23;5.50;;;3.90;1.00;;;;;;5098429;28;20458;-70
2022/01/31 02:04:43;;;;;;;14.60;3.83;;;3.90;1.00;;;;;;5098759;28;20453;-70
2022/01/31 02:07:12;;;;;;;22.00;4.97;;;4.00;1.00;;;;;;5098389;28;20502;-70
2022/01/31 02:09:43;;;;;;;24.93;4.70;;;4.00;1.00;;;;;;5097079;28;21000;-69
2022/01/31 02:12:11;;;;;;;16.43;3.37;;;4.00;1.00;;;;;;5097638;28;20538;-69
2022/01/31 02:14:38;;;;;;;19.10;4.40;;;4.10;1.00;;;;;;5098515;28;20457;-69
2022/01/31 02:17:05;;;;;;;19.50;4.47;;;4.10;99.90;;;;;;5098278;28;20510;-70
2022/01/31 02:19:32;;;;;;;20.87;5.67;;;4.10;99.90;;;;;;5098404;28;20510;-69
2022/01/31 02:22:01;;;;;;;26.83;4.83;;;4.10;99.90;;;;;;5098594;28;20758;-69
2022/01/31 02:24:28;;;;;;;22.40;3.67;;;4.10;1.00;;;;;;5100941;28;20468;-69
2022/01/31 02:26:57;;;;;;;24.83;4.73;;;4.10;1.00;;;;;;5103358;28;20473;-70
2022/01/31 02:29:24;;;;;;;27.23;6.93;;;4.10;1.00;;;;;;5102549;28;20579;-70
2022/01/31 02:31:51;;;;;;;10.67;3.30;;;4.10;99.90;;;;;;5102570;28;20457;-70
2022/01/31 02:34:18;;;;;;;16.00;4.23;;;4.10;99.90;;;;;;5102241;28;20453;-70
2022/01/31 02:36:44;;;;;;;16.03;4.40;;;4.10;99.90;;;;;;5102212;28;20457;-70
2022/01/31 02:39:13;;;;;;;14.27;2.87;;;4.10;99.90;;;;;;5102049;28;20456;-70
2022/01/31 02:41:41;;;;;;;19.70;4.37;;;4.10;64.50;;;;;;5102414;28;20510;-70
2022/01/31 02:44:14;;;;;;;19.87;6.03;;;4.20;1.00;;;;;;5102368;28;20778;-69
2022/01/31 02:46:46;;;;;;;18.33;4.33;;;4.20;1.00;;;;;;5101907;28;20552;-69
2022/01/31 02:49:15;;;;;;;18.13;3.60;;;4.20;99.90;;;;;;5102730;28;20499;-69
2022/01/31 02:51:46;;;;;;;21.87;3.40;;;4.20;99.90;;;;;;5102345;28;20453;-70
2022/01/31 02:54:14;;;;;;;13.53;3.77;;;4.20;99.90;;;;;;5101319;28;20453;-69
2022/01/31 02:56:41;;;;;;;20.40;5.17;;;4.20;1.00;;;;;;5102126;28;20483;-70
2022/01/31 02:59:08;;;;;;;19.87;4.83;;;4.20;1.00;;;;;;5101888;28;20831;-69
2022/01/31 03:01:34;;;;;;;26.13;4.90;;;4.20;1.00;;;;;;5102200;28;20464;-70
2022/01/31 03:04:01;;;;;;;23.80;4.40;;;4.20;74.20;;;;;;5102234;28;20453;-69
2022/01/31 03:06:28;;;;;;;24.77;4.63;;;4.20;1.80;;;;;;5101529;28;20847;-69
2022/01/31 03:08:55;;;;;;;16.50;3.90;;;4.20;1.00;;;;;;5102062;28;20452;-69
2022/01/31 03:11:23;;;;;;;18.47;4.47;;;4.20;1.00;;;;;;5102244;28;20457;-70
2022/01/31 03:13:49;;;;;;;16.43;3.93;;;4.20;1.00;;;;;;5101867;28;20468;-70
2022/01/31 03:16:18;;;;;;;18.57;4.67;;;4.20;1.00;;;;;;5102284;28;20472;-69
2022/01/31 03:18:45;;;;;;;13.20;3.50;;;4.30;1.00;;;;;;5101832;28;20938;-68
2022/01/31 03:21:12;;;;;;;22.07;4.53;;;4.30;99.90;;;;;;5101380;28;20461;-69
2022/01/31 03:23:39;;;;;;;24.43;3.97;;;4.30;99.90;;;;;;5101869;28;20466;-69
2022/01/31 03:26:05;;;;;;;26.10;4.40;;;4.30;93.00;;;;;;5101476;28;20477;-70
2022/01/31 03:28:33;;;;;;;19.47;4.17;;;4.30;62.00;;;;;;5101285;28;20921;-70
2022/01/31 03:31:00;;;;;;;19.50;4.53;;;4.30;1.00;;;;;;5100465;28;20468;-70
2022/01/31 03:33:27;;;;;;;25.93;4.63;;;4.30;1.00;;;;;;5100902;28;20457;-70
2022/01/31 03:35:54;;;;;;;19.67;3.63;;;4.20;1.00;;;;;;5099118;28;20898;-69
2022/01/31 03:38:20;;;;;;;21.60;4.47;;;4.20;99.90;;;;;;5100835;28;20839;-69
2022/01/31 03:40:47;;;;;;;26.47;4.37;;;4.20;99.90;;;;;;5101278;28;20461;-70
2022/01/31 03:43:14;;;;;;;27.80;5.20;;;4.20;1.00;;;;;;5100906;28;20464;-70
2022/01/31 03:45:42;;;;;;;19.13;4.33;;;4.20;1.00;;;;;;5098539;28;20453;-69
2022/01/31 03:48:12;;;;;;;20.00;3.77;;;4.20;99.90;;;;;;5097100;28;20496;-67
2022/01/31 03:50:38;;;;;;;16.67;3.70;;;4.20;99.90;;;;;;5096821;28;20453;-68
2022/01/31 03:53:05;;;;;;;28.20;5.23;;;4.30;99.90;;;;;;5097306;28;20937;-68
2022/01/31 03:55:32;;;;;;;9.83;3.47;;;4.30;99.90;;;;;;5097007;28;20561;-68
2022/01/31 03:57:58;;;;;;;13.17;3.33;;;4.30;99.90;;;;;;5097009;28;20461;-68
2022/01/31 04:00:25;;;;;;;19.17;4.73;;;4.30;99.90;;;;;;5096625;28;20464;-68
2022/01/31 04:02:53;;;;;;;18.60;3.53;;;4.30;42.40;;;;;;5097079;28;20548;-68
2022/01/31 04:05:20;;;;;;;12.23;3.73;;;4.30;82.20;;;;;;5097041;28;20454;-67
2022/01/31 04:07:47;;;;;;;17.30;4.13;;;4.30;99.90;;;;;;5096908;28;20817;-67
2022/01/31 04:10:14;;;;;;;16.30;4.13;;;4.30;99.90;;;;;;5096916;28;20784;-67
2022/01/31 04:12:40;;;;;;;24.87;7.10;;;4.20;99.90;;;;;;5097208;28;20480;-68
2022/01/31 04:15:08;;;;;;;23.33;3.63;;;4.20;99.90;;;;;;5096493;28;20472;-69
2022/01/31 04:17:37;;;;;;;29.83;5.40;;;4.20;99.90;;;;;;5097488;28;20757;-68
2022/01/31 04:20:07;;;;;;;17.53;3.80;;;4.20;99.90;;;;;;5096416;28;20457;-69
2022/01/31 04:22:37;;;;;;;15.70;4.60;;;4.20;99.90;;;;;;5096691;28;20452;-69
2022/01/31 04:25:06;;;;;;;18.90;3.87;;;4.20;99.90;;;;;;5096540;28;20500;-69
2022/01/31 04:27:44;;;;;;;11.50;3.50;;;4.20;99.90;;;;;;5096317;28;21029;-68
2022/01/31 04:30:13;;;;;;;26.57;4.17;;;4.20;99.90;;;;;;5096447;28;20449;-68
2022/01/31 04:32:39;;;;;;;19.73;4.53;;;4.20;99.90;;;;;;5096404;28;20465;-69
2022/01/31 04:35:09;;;;;;;18.33;5.67;;;4.20;99.90;;;;;;5096475;28;20441;-70
2022/01/31 04:37:35;;;;;;;21.77;4.30;;;4.20;99.90;;;;;;5096616;28;20844;-68
2022/01/31 04:40:02;;;;;;;22.37;4.17;;;4.10;99.90;;;;;;5096677;28;20828;-69
2022/01/31 04:42:29;;;;;;;15.70;4.60;;;4.10;99.90;;;;;;5096190;28;20493;-69
2022/01/31 04:45:00;;;;;;;21.30;6.63;;;4.10;99.90;;;;;;5096271;28;20457;-68
2022/01/31 04:47:26;;;;;;;29.17;5.13;;;4.20;99.90;;;;;;5095332;28;20488;-69
2022/01/31 04:49:53;;;;;;;18.43;3.87;;;4.20;99.90;;;;;;5095784;28;20460;-69
2022/01/31 04:52:21;;;;;;;19.87;5.00;;;4.20;99.90;;;;;;5095906;28;20468;-68
2022/01/31 04:54:48;;;;;;;25.80;4.50;;;4.30;99.90;;;;;;5096016;28;20457;-68
2022/01/31 04:57:16;;;;;;;19.93;4.73;;;4.30;99.90;;;;;;5096085;28;20790;-69
2022/01/31 04:59:44;;;;;;;14.23;4.23;;;4.30;69.30;;;;;;5095726;28;20479;-69
2022/01/31 05:02:11;;;;;;;19.83;3.93;;;4.20;95.00;;;;;;5096098;28;20460;-67
2022/01/31 05:04:37;;;;;;;15.43;3.50;;;4.20;99.90;;;;;;5095982;28;20457;-68
2022/01/31 05:07:04;;;;;;;15.30;3.83;;;4.20;99.90;;;;;;5096862;28;20488;-68
2022/01/31 05:09:32;;;;;;;18.07;4.33;;;4.20;99.90;;;;;;5096036;28;20789;-68
2022/01/31 05:11:59;;;;;;;18.30;4.30;;;4.30;99.90;;;;;;5095668;28;20456;-68
2022/01/31 05:14:26;;;;;;;24.33;4.27;;;4.30;99.90;;;;;;5095824;28;20465;-68
2022/01/31 05:16:53;;;;;;;19.17;4.13;;;4.20;97.20;;;;;;5095952;28;20457;-69
2022/01/31 05:19:19;;;;;;;15.73;3.67;;;4.20;99.90;;;;;;5095594;28;20518;-69
2022/01/31 05:21:46;;;;;;;24.63;4.10;;;4.30;99.90;;;;;;5095407;28;20466;-69
2022/01/31 05:24:12;;;;;;;23.03;4.40;;;4.20;99.90;;;;;;5095497;28;20488;-69
2022/01/31 05:26:41;;;;;;;28.10;4.60;;;4.20;99.90;;;;;;5095432;28;20457;-69
2022/01/31 05:29:07;;;;;;;14.43;3.93;;;4.30;99.90;;;;;;5095163;28;20914;-69
2022/01/31 05:31:34;;;;;;;25.30;4.70;;;4.20;99.90;;;;;;5095587;28;20468;-69
2022/01/31 05:34:00;;;;;;;20.57;4.20;;;4.30;99.90;;;;;;5095225;28;20469;-70
2022/01/31 05:36:27;;;;;;;21.67;4.77;;;4.20;99.90;;;;;;5095439;28;20457;-69
2022/01/31 05:38:54;;;;;;;21.83;4.20;;;4.30;99.90;;;;;;5095350;28;20457;-69
2022/01/31 05:41:21;;;;;;;22.53;4.90;;;4.30;99.90;;;;;;5095650;28;20454;-69
2022/01/31 05:43:49;;;;;;;26.57;5.10;;;4.30;34.00;;;;;;5095221;28;20453;-69
2022/01/31 05:46:16;;;;;;;19.67;5.00;;;4.20;1.00;;;;;;5096814;28;20481;-69
2022/01/31 05:48:43;;;;;;;18.10;4.73;;;4.20;1.00;;;;;;5099100;28;20476;-70
2022/01/31 05:51:15;;;;;;;18.83;4.37;;;4.20;3.50;;;;;;5098357;28;20465;-69
2022/01/31 05:53:43;;;;;;;25.83;5.10;;;4.20;1.00;;;;;;5097919;28;20438;-69
2022/01/31 05:56:10;;;;;;;19.33;5.20;;;4.20;1.00;;;;;;5098607;28;20534;-69
2022/01/31 05:58:37;;;;;;;15.10;3.80;;;4.10;30.10;;;;;;5098025;28;20450;-69
2022/01/31 06:01:06;;;;;;;31.80;4.93;;;4.10;1.00;;;;;;5098205;28;20484;-69
2022/01/31 06:03:32;;;;;;;24.30;5.37;;;4.10;50.30;;;;;;5098850;28;20838;-69
2022/01/31 06:05:59;;;;;;;16.17;3.90;;;4.10;54.80;;;;;;5098657;28;20468;-69
2022/01/31 06:08:26;;;;;;;18.43;4.53;;;4.10;99.90;;;;;;5100091;28;20473;-69
2022/01/31 06:10:54;;;;;;;19.43;4.47;;;4.10;1.00;;;;;;5103177;28;20796;-70
2022/01/31 06:13:24;;;;;;;20.23;3.67;;;4.10;1.00;;;;;;5101917;28;20504;-70
2022/01/31 06:15:51;;;;;;;30.17;5.00;;;4.00;1.00;;;;;;5099501;28;20454;-69
2022/01/31 06:18:19;;;;;;;25.67;6.10;;;4.10;1.00;;;;;;5098380;28;20461;-69
2022/01/31 06:20:46;;;;;;;16.00;4.30;;;4.10;1.00;;;;;;5098081;28;20468;-70
2022/01/31 06:23:13;;;;;;;23.83;5.00;;;4.00;1.00;;;;;;5097368;28;20466;-69
2022/01/31 06:25:40;;;;;;;18.43;4.00;;;4.00;1.00;;;;;;5097585;28;20457;-70
2022/01/31 06:28:07;;;;;;;19.07;4.30;;;4.00;1.00;;;;;;5097371;28;20475;-69
2022/01/31 06:30:35;;;;;;;14.13;4.20;;;4.00;1.00;;;;;;5098191;28;20788;-69
2022/01/31 06:33:02;;;;;;;16.13;3.97;;;4.00;1.00;;;;;;5097034;28;20898;-70
2022/01/31 06:35:30;;;;;;;20.60;4.17;;;3.90;1.00;;;;;;5098092;28;20491;-70
2022/01/31 06:37:57;;;;;;;17.93;3.93;;;3.90;1.00;;;;;;5097984;28;20767;-70
2022/01/31 06:40:24;;;;;;;18.60;6.70;;;3.90;1.00;;;;;;5097540;28;20457;-70
2022/01/31 06:42:50;;;;;;;19.83;4.83;;;3.90;1.00;;;;;;5096857;28;20819;-70
2022/01/31 06:45:17;;;;;;;20.53;5.23;;;3.90;1.00;;;;;;5097249;28;20482;-69
2022/01/31 06:47:44;;;;;;;15.73;3.67;;;3.90;1.00;;;;;;5096479;28;20546;-69
2022/01/31 06:50:11;;;;;;;16.73;4.13;;;3.90;1.00;;;;;;5097189;28;20461;-70
2022/01/31 06:52:39;;;;;;;20.47;4.70;;;3.90;1.00;;;;;;5097057;28;20897;-70
2022/01/31 06:55:07;;;;;;;13.83;4.67;;;3.90;1.00;;;;;;5097322;28;20468;-70
2022/01/31 06:57:36;;;;;;;18.73;5.20;;;3.90;1.00;;;;;;5097008;28;20544;-70
2022/01/31 07:00:06;;;;;;;28.03;4.20;;;3.90;1.00;;;;;;5097210;28;20472;-70
2022/01/31 07:02:32;;;;;;;17.77;4.67;;;3.90;1.00;;;;;;5097302;28;20453;-70
2022/01/31 07:05:00;;;;;;;23.40;5.73;;;3.90;1.00;;;;;;5097671;28;20458;-70
2022/01/31 07:07:27;;;;;;;25.37;4.80;;;3.90;1.00;;;;;;5099478;28;20473;-70
2022/01/31 07:09:56;;;;;;;21.20;4.80;;;4.00;1.00;;;;;;5101569;28;20456;-70
2022/01/31 07:12:29;;;;;;;22.60;5.63;;;4.00;1.00;;;;;;5103744;28;20453;-72
2022/01/31 07:14:55;;;;;;;20.30;5.30;;;4.00;1.00;;;;;;5102924;28;20487;-70
2022/01/31 07:17:22;;;;;;;27.20;5.60;;;4.00;1.00;;;;;;5103949;28;20458;-71
2022/01/31 07:19:49;;;;;;;14.53;5.00;;;4.10;1.00;;;;;;5103998;28;20518;-70
2022/01/31 07:22:18;;;;;;;17.87;3.73;;;4.10;1.00;;;;;;5100942;28;21001;-69
2022/01/31 07:24:49;;;;;;;23.30;4.60;;;4.10;1.00;;;;;;5101257;28;20467;-70
2022/01/31 07:27:17;;;;;;;12.77;4.23;;;4.10;1.00;;;;;;5101960;28;20449;-70
2022/01/31 07:29:45;;;;;;;20.60;5.10;;;4.10;1.00;;;;;;5100913;28;20449;-71
2022/01/31 07:32:13;;;;;;;30.27;4.80;;;4.10;1.00;;;;;;5100458;28;20460;-71
2022/01/31 07:34:41;;;;;;;15.77;4.50;;;4.10;1.00;;;;;;5101568;28;20479;-71
2022/01/31 07:37:10;;;;;;;19.57;4.57;;;4.10;1.00;;;;;;5101031;28;20477;-71
2022/01/31 07:39:40;;;;;;;19.73;5.53;;;4.10;1.00;;;;;;5100183;28;20457;-70
2022/01/31 07:42:07;;;;;;;23.03;5.40;;;4.10;1.00;;;;;;5100456;28;20496;-70
2022/01/31 07:44:35;;;;;;;19.87;5.03;;;4.10;1.00;;;;;;5100213;28;20454;-69
2022/01/31 07:47:03;;;;;;;19.20;5.13;;;4.00;1.00;;;;;;5100415;28;20523;-70
2022/01/31 07:49:29;;;;;;;20.00;5.10;;;4.00;1.00;;;;;;5100683;28;20573;-70
2022/01/31 07:51:57;;;;;;;26.30;5.40;;;4.00;1.00;;;;;;5100307;28;20449;-70
2022/01/31 07:54:25;;;;;;;18.30;5.07;;;4.00;1.00;;;;;;5100221;28;20468;-71
2022/01/31 07:56:53;;;;;;;22.70;5.17;;;4.10;1.00;;;;;;5099843;28;20980;-70
2022/01/31 07:59:20;;;;;;;17.10;4.20;;;4.00;1.00;;;;;;5100081;28;20521;-71
2022/01/31 08:01:48;;;;;;;26.57;5.57;;;4.00;1.00;;;;;;5099930;28;20460;-70
2022/01/31 08:04:15;;;;;;;14.83;5.07;;;4.00;1.00;;;;;;5100009;28;20834;-70
2022/01/31 08:06:42;;;;;;;26.67;5.20;;;4.00;1.00;;;;;;5100062;28;20483;-71
2022/01/31 08:09:08;;;;;;;18.73;4.20;;;4.00;1.00;;;;;;5099450;28;20964;-70
2022/01/31 08:11:35;;;;;;;23.77;5.37;;;4.00;1.00;;;;;;5100909;28;20538;-70
2022/01/31 08:14:07;;;;;;;20.10;5.20;;;4.00;1.00;;;;;;5100203;28;20462;-70
2022/01/31 08:16:34;;;;;;;24.03;5.30;;;4.00;1.00;;;;;;5100286;28;20461;-70
2022/01/31 08:19:05;;;;;;;23.90;5.80;;;4.00;1.00;;;;;;5099570;28;20457;-70
2022/01/31 08:21:32;;;;;;;13.23;4.27;;;3.90;1.00;;;;;;5099849;28;20879;-70
2022/01/31 08:23:59;;;;;;;23.60;4.73;;;4.00;1.00;;;;;;5101045;28;20797;-70
2022/01/31 08:26:26;;;;;;;12.13;4.83;;;4.00;1.00;;;;;;5099269;28;20446;-70
2022/01/31 08:28:56;;;;;;;19.97;6.93;;;4.00;1.00;;;;;;5099039;28;20481;-70
2022/01/31 08:31:28;;;;;;;16.70;5.03;;;4.10;1.00;;;;;;5100055;28;20447;-69
2022/01/31 08:34:17;;;;;;;22.50;5.37;;;4.10;1.00;;;;;;5098966;28;20449;-70
2022/01/31 08:36:46;;;;;;;24.17;4.93;;;4.20;1.00;;;;;;5099277;28;20449;-70
2022/01/31 08:39:17;;;;;;;20.83;6.20;;;4.20;1.00;;;;;;5099812;28;20468;-71
2022/01/31 08:41:45;;;;;;;12.90;4.60;;;4.20;1.00;;;;;;5099027;28;20841;-69
2022/01/31 08:44:14;;;;;;;15.10;5.30;;;4.30;1.00;;;;;;5098680;28;20457;-70
2022/01/31 08:46:42;;;;;;;22.37;5.00;;;4.40;1.00;;;;;;5097783;28;20482;-70
2022/01/31 08:49:09;;;;;;;19.07;5.57;;;4.40;1.00;;;;;;5098271;28;20480;-69
2022/01/31 08:51:36;;;;;;;25.17;6.67;;;4.50;99.90;;;;;;5098602;28;20469;-71
2022/01/31 08:54:06;;;;;;;21.97;4.33;;;4.50;99.90;;;;;;5098236;28;20468;-69
2022/01/31 08:56:35;;;;;;;22.63;5.97;;;4.50;99.90;;;;;;5098141;28;20544;-69
2022/01/31 08:59:07;;;;;;;17.90;5.40;;;4.60;99.90;;;;;;5098234;28;20544;-71
2022/01/31 09:01:34;;;;;;;13.37;5.17;;;4.60;99.90;;;;;;5098330;28;20461;-69
2022/01/31 09:04:04;;;;;;;19.57;4.30;;;4.70;99.90;;;;;;5098395;28;20464;-69
2022/01/31 09:06:34;;;;;;;32.03;5.47;;;4.70;99.90;;;;;;5096006;28;20441;-69
2022/01/31 09:09:05;;;;;;;14.03;4.90;;;4.80;99.90;;;;;;5095969;28;20886;-68
2022/01/31 09:11:33;;;;;;;17.90;4.83;;;4.80;99.90;;;;;;5095681;28;20441;-67
2022/01/31 09:14:00;;;;;;;26.07;7.20;;;4.90;29.30;;;;;;5095791;28;20469;-68
2022/01/31 09:16:27;;;;;;;22.87;6.00;;;4.80;18.50;;;;;;5095526;28;20457;-67
2022/01/31 09:18:54;;;;;;;25.27;5.63;;;4.80;29.20;;;;;;5095373;28;20461;-69
2022/01/31 09:21:20;;;;;;;23.50;6.60;;;4.90;20.10;;;;;;5095550;28;20457;-67
2022/01/31 09:23:52;;;;;;;18.60;6.03;;;4.90;1.00;;;;;;5095580;28;20461;-68
2022/01/31 09:26:21;;;;;;;18.90;5.27;;;4.90;1.00;;;;;;5095330;28;20458;-68
2022/01/31 09:28:54;;;;;;;16.63;5.20;;;4.90;1.00;;;;;;5095641;28;21082;-70
2022/01/31 09:31:21;;;;;;;21.40;4.73;;;4.80;1.00;;;;;;5096840;28;20815;-68
2022/01/31 09:33:48;;;;;;;18.83;5.50;;;4.80;1.00;;;;;;5096657;28;20452;-69
2022/01/31 09:36:15;;;;;;;17.77;5.20;;;4.80;1.00;;;;;;5096326;28;20468;-68
2022/01/31 09:38:42;;;;;;;22.57;6.30;;;4.80;1.00;;;;;;5096242;28;20450;-69
2022/01/31 09:41:11;;;;;;;19.83;5.17;;;4.80;1.00;;;;;;5096215;28;20508;-67
2022/01/31 09:46:48;;;;;;;27.87;5.67;;;4.80;1.00;;;;;;5096153;28;20469;-68
2022/01/31 09:49:16;;;;;;;20.77;5.67;;;4.90;1.00;;;;;;5095988;28;20552;-68
2022/01/31 09:51:43;;;;;;;23.07;5.90;;;5.00;1.00;;;;;;5097868;28;20461;-68
2022/01/31 09:54:10;;;;;;;28.47;7.37;;;5.00;1.00;;;;;;5097508;28;20456;-68
2022/01/31 09:56:39;;;;;;;20.03;4.70;;;5.00;1.00;;;;;;5097680;28;20487;-69
2022/01/31 09:59:07;;;;;;;19.03;6.03;;;5.10;1.00;;;;;;5097666;28;20793;-67
2022/01/31 10:01:37;;;;;;;22.53;5.37;;;5.10;1.00;;;;;;5097352;28;20460;-68
2022/01/31 10:04:07;;;;;;;21.20;4.63;;;5.00;1.00;;;;;;5098639;28;20943;-68
2022/01/31 10:06:36;;;;;;;23.37;5.10;;;5.00;1.00;;;;;;5100455;28;20441;-68
2022/01/31 10:09:07;;;;;;;15.80;4.80;;;5.00;1.00;;;;;;5098768;28;20485;-69
2022/01/31 10:11:45;;;;;;;22.93;6.10;;;5.00;1.00;;;;;;5102969;28;20445;-69
2022/01/31 10:17:07;;;;;;;29.20;5.80;;;4.90;1.00;;;;;;5102594;28;20489;-69
2022/01/31 10:19:43;;;;;;;19.73;5.57;;;4.90;1.00;;;;;;5098321;28;20450;-68
2022/01/31 10:22:12;;;;;;;23.60;5.50;;;4.90;1.00;;;;;;5098804;28;20811;-68
2022/01/31 10:24:41;;;;;;;19.27;4.90;;;4.90;1.00;;;;;;5097946;28;20456;-69
2022/01/31 10:27:11;;;;;;;21.40;5.20;;;5.00;1.00;;;;;;5097061;28;20936;-69
2022/01/31 10:29:38;;;;;;;19.17;6.53;;;5.00;1.00;;;;;;5098951;28;20564;-68
2022/01/31 10:32:09;;;;;;;23.00;5.30;;;5.00;1.00;;;;;;5097634;28;20475;-69
2022/01/31 10:34:38;;;;;;;18.77;5.80;;;5.00;1.00;;;;;;5096736;28;20446;-69
2022/01/31 10:37:11;;;;;;;20.83;5.40;;;5.10;1.00;;;;;;5095882;28;20848;-69
2022/01/31 10:45:43;;;;;;;29.80;6.50;;;5.20;1.00;;;;;;5100477;28;20762;-69
2022/01/31 10:54:03;;;;;;;26.10;7.30;;;5.30;1.00;;;;;;5101362;28;20437;-69
2022/01/31 10:56:40;;;;;;;27.70;6.20;;;5.30;1.00;;;;;;5102012;28;20541;-70
2022/01/31 10:59:09;;;;;;;17.23;5.80;;;5.40;1.00;;;;;;5101467;28;20429;-70
2022/01/31 11:01:38;;;;;;;23.40;5.57;;;5.40;1.00;;;;;;5100736;28;20453;-69
2022/01/31 11:04:10;;;;;;;30.17;5.87;;;5.40;1.00;;;;;;5100863;28;20460;-67
2022/01/31 11:06:39;;;;;;;12.10;4.70;;;5.40;1.00;;;;;;5101078;28;20469;-69
2022/01/31 11:09:09;;;;;;;15.53;5.97;;;5.40;1.00;;;;;;5101137;28;20476;-69
2022/01/31 11:11:37;;;;;;;16.23;5.20;;;5.40;1.00;;;;;;5100077;28;20468;-69
2022/01/31 11:14:05;;;;;;;27.20;6.03;;;5.50;1.00;;;;;;5099744;28;20539;-70
2022/01/31 11:16:32;;;;;;;16.73;6.03;;;5.60;1.00;;;;;;5099467;28;20789;-68
2022/01/31 11:19:03;;;;;;;22.70;5.23;;;5.70;1.00;;;;;;5099107;28;20450;-70
2022/01/31 11:21:34;;;;;;;17.17;6.13;;;5.70;1.00;;;;;;5099140;28;20449;-69
2022/01/31 11:24:03;;;;;;;18.67;5.80;;;5.80;1.00;;;;;;5098209;28;20503;-69
2022/01/31 11:26:38;;;;;;;25.67;6.67;;;5.70;1.00;;;;;;5098877;28;20476;-69
2022/01/31 11:29:07;;;;;;;18.10;6.17;;;5.70;1.00;;;;;;5098404;28;20480;-69
2022/01/31 11:31:38;;;;;;;15.63;5.10;;;5.70;1.00;;;;;;5098577;28;20534;-68
2022/01/31 11:34:06;;;;;;;22.83;4.60;;;5.80;1.00;;;;;;5097663;28;20591;-69
2022/01/31 11:36:37;;;;;;;22.10;5.07;;;5.90;1.00;;;;;;5098621;28;20747;-69
2022/01/31 11:39:06;;;;;;;17.20;4.73;;;6.00;1.00;;;;;;5098187;28;20544;-69
2022/01/31 11:41:34;;;;;;;20.00;6.03;;;6.10;99.90;;;;;;5098187;28;20457;-68
2022/01/31 11:44:11;;;;;;;16.40;4.47;;;6.20;99.90;;;;;;5098190;28;20785;-68
2022/01/31 11:46:40;;;;;;;16.73;5.57;;;6.30;99.90;;;;;;5098271;28;20477;-70
2022/01/31 11:49:11;;;;;;;16.30;6.60;;;6.30;99.90;;;;;;5098508;28;20512;-68
2022/01/31 11:52:01;;;;;;;30.63;6.53;;;6.50;99.90;;;;;;5098203;28;20491;-68
2022/01/31 11:54:29;;;;;;;14.47;5.10;;;6.60;99.90;;;;;;5100566;28;20434;-68
2022/01/31 11:56:55;;;;;;;24.47;6.00;;;6.70;99.90;;;;;;5097713;28;20458;-69
2022/01/31 11:59:23;;;;;;;20.23;5.60;;;6.70;99.90;;;;;;5098603;28;20449;-69
2022/01/31 12:01:51;;;;;;;18.77;6.40;;;6.80;99.90;;;;;;5098960;28;20457;-68
2022/01/31 12:04:22;;;;;;;16.10;4.53;;;6.90;99.90;;;;;;5099155;28;20453;-68
2022/01/31 12:06:51;;;;;;;31.47;9.37;;;7.10;99.90;;;;;;5098096;28;20909;-69
2022/01/31 12:09:21;;;;;;;28.83;7.20;;;7.40;99.90;;;;;;5097827;28;20481;-69
2022/01/31 12:11:59;;;;;;;24.13;6.60;;;7.70;99.90;;;;;;5097788;28;20514;-69
2022/01/31 12:14:30;;;;;;;28.90;8.90;;;8.00;99.90;;;;;;5098104;28;20795;-69
2022/01/31 12:17:17;;;;;;;18.13;6.07;;;8.30;99.90;;;;;;5100365;28;20434;-68
2022/01/31 12:20:00;;;;;;;20.10;6.57;;;8.50;99.90;;;;;;5097346;28;20433;-69
2022/01/31 12:22:44;;;;;;;19.40;6.27;;;8.50;99.90;;;;;;5096962;28;20905;-68
2022/01/31 12:25:28;;;;;;;13.67;5.60;;;8.40;99.90;;;;;;5097505;28;20449;-68
2022/01/31 12:27:56;;;;;;;17.13;6.17;;;8.30;99.90;;;;;;5095641;28;20472;-69
2022/01/31 12:30:36;;;;;;;18.50;5.90;;;8.30;99.90;;;;;;5097026;28;20477;-69
2022/01/31 12:33:03;;;;;;;27.33;6.43;;;8.20;99.90;;;;;;5097393;28;20457;-69
2022/01/31 12:35:36;;;;;;;20.73;7.07;;;8.20;99.90;;;;;;5096693;28;20457;-68
2022/01/31 12:38:06;;;;;;;20.80;5.93;;;8.10;99.90;;;;;;5097032;28;20481;-69
2022/01/31 12:40:40;;;;;;;19.00;8.00;;;8.10;99.90;;;;;;5096815;28;20454;-70
2022/01/31 12:43:24;;;;;;;17.10;5.83;;;8.10;99.90;;;;;;5096918;28;20764;-68
2022/01/31 12:46:08;;;;;;;12.87;5.03;;;8.10;99.90;;;;;;5097048;28;20905;-70
2022/01/31 12:48:36;;;;;;;23.53;6.60;;;8.10;99.90;;;;;;5097806;28;20450;-71
2022/01/31 12:51:08;;;;;;;15.83;5.83;;;7.90;99.90;;;;;;5097068;28;20910;-70
2022/01/31 12:53:48;;;;;;;23.23;6.00;;;7.80;99.90;;;;;;5097393;28;20914;-69
2022/01/31 12:56:26;;;;;;;15.80;5.47;;;7.60;99.90;;;;;;5097436;28;20441;-69
2022/01/31 12:59:02;;;;;;;22.20;6.10;;;7.60;99.90;;;;;;5097545;28;20452;-69
2022/01/31 13:01:49;;;;;;;24.17;6.20;;;7.50;99.90;;;;;;5100559;28;20445;-69
2022/01/31 13:04:22;;;;;;;55.47;23.17;;;7.30;99.90;;;;;;5102036;28;20461;-73
2022/01/31 13:06:59;;;;;;;33.73;15.87;;;7.20;99.90;;;;;;5099394;28;20464;-70
2022/01/31 13:09:28;;;;;;;18.40;6.30;;;7.20;99.90;;;;;;5099638;28;20472;-69
2022/01/31 13:11:57;;;;;;;19.03;6.23;;;7.30;99.90;;;;;;5096989;28;20896;-69
2022/01/31 13:14:26;;;;;;;22.50;5.20;;;7.40;99.90;;;;;;5098163;28;20544;-68
2022/01/31 13:17:05;;;;;;;13.53;5.60;;;7.50;99.90;;;;;;5099953;28;20449;-69
2022/01/31 13:19:34;;;;;;;18.80;6.80;;;7.60;99.90;;;;;;5099812;28;20892;-69